sensor_id;sensor_type;location;lat;lon;timestamp;P1;durP1;ratioP1;P2;durP2;ratioP2
39222;SDS011;24936;46.328;11.026;2024-03-06T00:02:11;0.50;;;0.50;;
39222;SDS011;24936;46.328;11.026;2024-03-06T00:04:36;0.50;;;0.50;;
39222;SDS011;24936;46.328;11.026;2024-03-06T00:07:03;1.40;;;0.63;;
39222;SDS011;24936;46.328;11.026;2024-03-06T00:09:28;0.40;;;0.40;;
39222;SDS011;24936;46.328;11.026;2024-03-06T00:11:54;0.50;;;0.50;;
39222;SDS011;24936;46.328;11.026;2024-03-06T00:14:21;0.50;;;0.50;;
39222;SDS011;24936;46.328;11.026;2024-03-06T00:16:47;0.40;;;0.40;;
39222;SDS011;24936;46.328;11.026;2024-03-06T00:19:15;0.73;;;0.70;;
39222;SDS011;24936;46.328;11.026;2024-03-06T00:21:42;0.60;;;0.60;;
39222;SDS011;24936;46.328;11.026;2024-03-06T00:24:08;0.40;;;0.40;;
39222;SDS011;24936;46.328;11.026;2024-03-06T00:26:33;0.40;;;0.40;;
39222;SDS011;24936;46.328;11.026;2024-03-06T00:28:59;0.45;;;0.45;;
39222;SDS011;24936;46.328;11.026;2024-03-06T00:31:25;0.57;;;0.50;;
39222;SDS011;24936;46.328;11.026;2024-03-06T00:33:50;0.60;;;0.50;;
39222;SDS011;24936;46.328;11.026;2024-03-06T00:36:16;0.57;;;0.30;;
39222;SDS011;24936;46.328;11.026;2024-03-06T00:38:42;0.30;;;0.30;;
39222;SDS011;24936;46.328;11.026;2024-03-06T00:41:08;0.20;;;0.20;;
39222;SDS011;24936;46.328;11.026;2024-03-06T00:43:34;1.75;;;0.47;;
39222;SDS011;24936;46.328;11.026;2024-03-06T00:45:59;0.70;;;0.70;;
39222;SDS011;24936;46.328;11.026;2024-03-06T00:48:25;0.55;;;0.43;;
39222;SDS011;24936;46.328;11.026;2024-03-06T00:50:51;0.50;;;0.50;;
39222;SDS011;24936;46.328;11.026;2024-03-06T00:53:17;0.20;;;0.20;;
39222;SDS011;24936;46.328;11.026;2024-03-06T00:55:42;0.32;;;0.20;;
39222;SDS011;24936;46.328;11.026;2024-03-06T00:58:08;0.47;;;0.25;;
39222;SDS011;24936;46.328;11.026;2024-03-06T01:00:34;0.38;;;0.38;;
39222;SDS011;24936;46.328;11.026;2024-03-06T01:02:59;3.15;;;0.20;;
39222;SDS011;24936;46.328;11.026;2024-03-06T01:05:25;0.20;;;0.20;;
39222;SDS011;24936;46.328;11.026;2024-03-06T01:07:51;0.20;;;0.20;;
39222;SDS011;24936;46.328;11.026;2024-03-06T01:10:17;0.20;;;0.20;;
39222;SDS011;24936;46.328;11.026;2024-03-06T01:12:43;0.35;;;0.35;;
39222;SDS011;24936;46.328;11.026;2024-03-06T01:15:11;0.47;;;0.30;;
39222;SDS011;24936;46.328;11.026;2024-03-06T01:17:37;0.10;;;0.10;;
39222;SDS011;24936;46.328;11.026;2024-03-06T01:20:03;0.20;;;0.20;;
39222;SDS011;24936;46.328;11.026;2024-03-06T01:22:32;0.52;;;0.13;;
39222;SDS011;24936;46.328;11.026;2024-03-06T01:24:59;0.22;;;0.22;;
39222;SDS011;24936;46.328;11.026;2024-03-06T01:27:25;0.60;;;0.20;;
39222;SDS011;24936;46.328;11.026;2024-03-06T01:29:51;0.20;;;0.20;;
39222;SDS011;24936;46.328;11.026;2024-03-06T01:32:17;0.10;;;0.10;;
39222;SDS011;24936;46.328;11.026;2024-03-06T01:34:43;0.30;;;0.30;;
39222;SDS011;24936;46.328;11.026;2024-03-06T01:37:08;0.52;;;0.35;;
39222;SDS011;24936;46.328;11.026;2024-03-06T01:39:34;0.10;;;0.10;;
39222;SDS011;24936;46.328;11.026;2024-03-06T01:42:01;1.45;;;0.20;;
39222;SDS011;24936;46.328;11.026;2024-03-06T01:44:27;0.30;;;0.30;;
39222;SDS011;24936;46.328;11.026;2024-03-06T01:46:53;0.22;;;0.22;;
39222;SDS011;24936;46.328;11.026;2024-03-06T01:49:19;0.20;;;0.20;;
39222;SDS011;24936;46.328;11.026;2024-03-06T01:51:51;0.20;;;0.20;;
39222;SDS011;24936;46.328;11.026;2024-03-06T01:54:18;0.30;;;0.30;;
39222;SDS011;24936;46.328;11.026;2024-03-06T01:56:45;0.10;;;0.10;;
39222;SDS011;24936;46.328;11.026;2024-03-06T01:59:15;0.20;;;0.20;;
39222;SDS011;24936;46.328;11.026;2024-03-06T02:01:44;0.20;;;0.20;;
39222;SDS011;24936;46.328;11.026;2024-03-06T02:04:11;0.30;;;0.30;;
39222;SDS011;24936;46.328;11.026;2024-03-06T02:06:40;1.35;;;0.30;;
39222;SDS011;24936;46.328;11.026;2024-03-06T02:09:07;0.10;;;0.10;;
39222;SDS011;24936;46.328;11.026;2024-03-06T02:11:34;0.55;;;0.20;;
39222;SDS011;24936;46.328;11.026;2024-03-06T02:14:03;0.10;;;0.10;;
39222;SDS011;24936;46.328;11.026;2024-03-06T02:16:29;0.20;;;0.20;;
39222;SDS011;24936;46.328;11.026;2024-03-06T02:18:56;0.10;;;0.10;;
39222;SDS011;24936;46.328;11.026;2024-03-06T02:21:23;0.20;;;0.20;;
39222;SDS011;24936;46.328;11.026;2024-03-06T02:23:50;0.20;;;0.20;;
39222;SDS011;24936;46.328;11.026;2024-03-06T02:26:19;0.32;;;0.17;;
39222;SDS011;24936;46.328;11.026;2024-03-06T02:28:47;0.50;;;0.50;;
39222;SDS011;24936;46.328;11.026;2024-03-06T02:31:14;0.22;;;0.22;;
39222;SDS011;24936;46.328;11.026;2024-03-06T02:33:40;0.57;;;0.57;;
39222;SDS011;24936;46.328;11.026;2024-03-06T02:36:06;2.13;;;0.57;;
39222;SDS011;24936;46.328;11.026;2024-03-06T02:38:32;0.60;;;0.60;;
39222;SDS011;24936;46.328;11.026;2024-03-06T02:40:58;0.82;;;0.65;;
39222;SDS011;24936;46.328;11.026;2024-03-06T02:43:24;0.40;;;0.40;;
39222;SDS011;24936;46.328;11.026;2024-03-06T02:45:50;0.57;;;0.57;;
39222;SDS011;24936;46.328;11.026;2024-03-06T02:48:16;0.40;;;0.40;;
39222;SDS011;24936;46.328;11.026;2024-03-06T02:50:41;1.48;;;0.52;;
39222;SDS011;24936;46.328;11.026;2024-03-06T02:53:07;0.40;;;0.40;;
39222;SDS011;24936;46.328;11.026;2024-03-06T02:55:33;0.73;;;0.73;;
39222;SDS011;24936;46.328;11.026;2024-03-06T02:58:02;3.50;;;0.70;;
39222;SDS011;24936;46.328;11.026;2024-03-06T03:00:28;0.45;;;0.45;;
39222;SDS011;24936;46.328;11.026;2024-03-06T03:02:54;0.43;;;0.43;;
39222;SDS011;24936;46.328;11.026;2024-03-06T03:05:20;0.40;;;0.40;;
39222;SDS011;24936;46.328;11.026;2024-03-06T03:07:45;0.80;;;0.80;;
39222;SDS011;24936;46.328;11.026;2024-03-06T03:10:11;0.80;;;0.80;;
39222;SDS011;24936;46.328;11.026;2024-03-06T03:12:40;0.50;;;0.50;;
39222;SDS011;24936;46.328;11.026;2024-03-06T03:15:06;0.60;;;0.60;;
39222;SDS011;24936;46.328;11.026;2024-03-06T03:17:33;0.65;;;0.52;;
39222;SDS011;24936;46.328;11.026;2024-03-06T03:20:02;0.30;;;0.30;;
39222;SDS011;24936;46.328;11.026;2024-03-06T03:22:38;0.20;;;0.20;;
39222;SDS011;24936;46.328;11.026;2024-03-06T03:25:11;0.17;;;0.17;;
39222;SDS011;24936;46.328;11.026;2024-03-06T03:27:38;2.17;;;0.40;;
39222;SDS011;24936;46.328;11.026;2024-03-06T03:30:12;0.55;;;0.40;;
39222;SDS011;24936;46.328;11.026;2024-03-06T03:32:38;0.50;;;0.50;;
39222;SDS011;24936;46.328;11.026;2024-03-06T03:35:04;0.30;;;0.30;;
39222;SDS011;24936;46.328;11.026;2024-03-06T03:37:31;0.90;;;0.50;;
39222;SDS011;24936;46.328;11.026;2024-03-06T03:39:57;0.30;;;0.30;;
39222;SDS011;24936;46.328;11.026;2024-03-06T03:42:23;0.20;;;0.20;;
39222;SDS011;24936;46.328;11.026;2024-03-06T03:44:48;0.35;;;0.28;;
39222;SDS011;24936;46.328;11.026;2024-03-06T03:47:14;0.20;;;0.20;;
39222;SDS011;24936;46.328;11.026;2024-03-06T03:49:40;0.45;;;0.45;;
39222;SDS011;24936;46.328;11.026;2024-03-06T03:52:06;0.40;;;0.40;;
39222;SDS011;24936;46.328;11.026;2024-03-06T03:54:31;0.40;;;0.40;;
39222;SDS011;24936;46.328;11.026;2024-03-06T03:56:57;0.20;;;0.20;;
39222;SDS011;24936;46.328;11.026;2024-03-06T03:59:24;0.30;;;0.30;;
39222;SDS011;24936;46.328;11.026;2024-03-06T04:01:51;0.43;;;0.32;;
39222;SDS011;24936;46.328;11.026;2024-03-06T04:04:17;0.35;;;0.35;;
39222;SDS011;24936;46.328;11.026;2024-03-06T04:06:43;2.20;;;0.68;;
39222;SDS011;24936;46.328;11.026;2024-03-06T04:09:10;0.30;;;0.30;;
39222;SDS011;24936;46.328;11.026;2024-03-06T04:11:36;0.20;;;0.20;;
39222;SDS011;24936;46.328;11.026;2024-03-06T04:14:06;0.38;;;0.38;;
39222;SDS011;24936;46.328;11.026;2024-03-06T04:16:32;0.30;;;0.30;;
39222;SDS011;24936;46.328;11.026;2024-03-06T04:18:59;0.32;;;0.32;;
39222;SDS011;24936;46.328;11.026;2024-03-06T04:21:24;0.30;;;0.30;;
39222;SDS011;24936;46.328;11.026;2024-03-06T04:23:50;0.60;;;0.60;;
39222;SDS011;24936;46.328;11.026;2024-03-06T04:26:16;0.68;;;0.68;;
39222;SDS011;24936;46.328;11.026;2024-03-06T04:28:42;0.47;;;0.47;;
39222;SDS011;24936;46.328;11.026;2024-03-06T04:31:08;0.47;;;0.47;;
39222;SDS011;24936;46.328;11.026;2024-03-06T04:33:35;0.43;;;0.43;;
39222;SDS011;24936;46.328;11.026;2024-03-06T04:36:01;0.30;;;0.30;;
39222;SDS011;24936;46.328;11.026;2024-03-06T04:38:33;0.40;;;0.40;;
39222;SDS011;24936;46.328;11.026;2024-03-06T04:40:59;0.30;;;0.30;;
39222;SDS011;24936;46.328;11.026;2024-03-06T04:43:25;0.77;;;0.60;;
39222;SDS011;24936;46.328;11.026;2024-03-06T04:45:51;0.50;;;0.50;;
39222;SDS011;24936;46.328;11.026;2024-03-06T04:48:17;0.57;;;0.57;;
39222;SDS011;24936;46.328;11.026;2024-03-06T04:50:42;0.30;;;0.30;;
39222;SDS011;24936;46.328;11.026;2024-03-06T04:53:09;0.57;;;0.57;;
39222;SDS011;24936;46.328;11.026;2024-03-06T04:55:36;0.70;;;0.70;;
39222;SDS011;24936;46.328;11.026;2024-03-06T04:58:02;0.93;;;0.93;;
39222;SDS011;24936;46.328;11.026;2024-03-06T05:00:28;1.00;;;1.00;;
39222;SDS011;24936;46.328;11.026;2024-03-06T05:02:54;1.98;;;1.50;;
39222;SDS011;24936;46.328;11.026;2024-03-06T05:05:21;0.90;;;0.90;;
39222;SDS011;24936;46.328;11.026;2024-03-06T05:07:47;1.65;;;0.88;;
39222;SDS011;24936;46.328;11.026;2024-03-06T05:10:13;1.05;;;0.75;;
39222;SDS011;24936;46.328;11.026;2024-03-06T05:12:41;1.35;;;0.75;;
39222;SDS011;24936;46.328;11.026;2024-03-06T05:15:07;0.60;;;0.57;;
39222;SDS011;24936;46.328;11.026;2024-03-06T05:17:33;0.50;;;0.32;;
39222;SDS011;24936;46.328;11.026;2024-03-06T05:19:59;0.85;;;0.85;;
39222;SDS011;24936;46.328;11.026;2024-03-06T05:22:26;0.63;;;0.63;;
39222;SDS011;24936;46.328;11.026;2024-03-06T05:24:51;1.20;;;0.68;;
39222;SDS011;24936;46.328;11.026;2024-03-06T05:27:18;0.90;;;0.90;;
39222;SDS011;24936;46.328;11.026;2024-03-06T05:29:44;0.43;;;0.43;;
39222;SDS011;24936;46.328;11.026;2024-03-06T05:32:10;0.50;;;0.50;;
39222;SDS011;24936;46.328;11.026;2024-03-06T05:34:35;0.52;;;0.52;;
39222;SDS011;24936;46.328;11.026;2024-03-06T05:37:01;0.98;;;0.73;;
39222;SDS011;24936;46.328;11.026;2024-03-06T05:39:31;0.30;;;0.30;;
39222;SDS011;24936;46.328;11.026;2024-03-06T05:42:02;0.85;;;0.52;;
39222;SDS011;24936;46.328;11.026;2024-03-06T05:44:29;0.75;;;0.60;;
39222;SDS011;24936;46.328;11.026;2024-03-06T05:46:56;0.40;;;0.40;;
39222;SDS011;24936;46.328;11.026;2024-03-06T05:49:23;0.65;;;0.65;;
39222;SDS011;24936;46.328;11.026;2024-03-06T05:51:49;3.55;;;1.67;;
39222;SDS011;24936;46.328;11.026;2024-03-06T05:54:14;0.88;;;0.88;;
39222;SDS011;24936;46.328;11.026;2024-03-06T05:56:40;1.20;;;1.20;;
39222;SDS011;24936;46.328;11.026;2024-03-06T05:59:07;1.65;;;1.45;;
39222;SDS011;24936;46.328;11.026;2024-03-06T06:01:36;2.78;;;2.10;;
39222;SDS011;24936;46.328;11.026;2024-03-06T06:04:01;3.17;;;2.25;;
39222;SDS011;24936;46.328;11.026;2024-03-06T06:06:27;2.60;;;2.40;;
39222;SDS011;24936;46.328;11.026;2024-03-06T06:08:53;2.58;;;2.28;;
39222;SDS011;24936;46.328;11.026;2024-03-06T06:11:19;2.28;;;2.08;;
39222;SDS011;24936;46.328;11.026;2024-03-06T06:13:45;3.13;;;2.65;;
39222;SDS011;24936;46.328;11.026;2024-03-06T06:16:10;4.60;;;4.07;;
39222;SDS011;24936;46.328;11.026;2024-03-06T06:18:37;10.93;;;8.32;;
39222;SDS011;24936;46.328;11.026;2024-03-06T06:21:02;12.52;;;10.27;;
39222;SDS011;24936;46.328;11.026;2024-03-06T06:23:32;6.78;;;6.15;;
39222;SDS011;24936;46.328;11.026;2024-03-06T06:25:58;4.45;;;4.05;;
39222;SDS011;24936;46.328;11.026;2024-03-06T06:28:23;4.50;;;3.22;;
39222;SDS011;24936;46.328;11.026;2024-03-06T06:30:49;4.32;;;3.58;;
39222;SDS011;24936;46.328;11.026;2024-03-06T06:33:19;4.78;;;3.97;;
39222;SDS011;24936;46.328;11.026;2024-03-06T06:35:46;3.95;;;3.17;;
39222;SDS011;24936;46.328;11.026;2024-03-06T06:38:12;2.30;;;2.10;;
39222;SDS011;24936;46.328;11.026;2024-03-06T06:40:38;2.42;;;2.22;;
39222;SDS011;24936;46.328;11.026;2024-03-06T06:43:05;2.50;;;2.30;;
39222;SDS011;24936;46.328;11.026;2024-03-06T06:45:31;2.55;;;2.15;;
39222;SDS011;24936;46.328;11.026;2024-03-06T06:47:57;2.08;;;1.90;;
39222;SDS011;24936;46.328;11.026;2024-03-06T06:50:23;3.00;;;2.10;;
39222;SDS011;24936;46.328;11.026;2024-03-06T06:52:51;1.65;;;1.55;;
39222;SDS011;24936;46.328;11.026;2024-03-06T06:55:17;2.42;;;2.17;;
39222;SDS011;24936;46.328;11.026;2024-03-06T06:57:42;2.50;;;2.30;;
39222;SDS011;24936;46.328;11.026;2024-03-06T07:00:09;2.97;;;2.67;;
39222;SDS011;24936;46.328;11.026;2024-03-06T07:02:38;2.35;;;1.80;;
39222;SDS011;24936;46.328;11.026;2024-03-06T07:05:06;9.27;;;4.68;;
39222;SDS011;24936;46.328;11.026;2024-03-06T07:07:33;57.80;;;9.90;;
39222;SDS011;24936;46.328;11.026;2024-03-06T07:09:59;38.70;;;7.45;;
39222;SDS011;24936;46.328;11.026;2024-03-06T07:12:25;45.40;;;6.45;;
39222;SDS011;24936;46.328;11.026;2024-03-06T07:14:50;35.03;;;7.97;;
39222;SDS011;24936;46.328;11.026;2024-03-06T07:17:16;34.05;;;8.98;;
39222;SDS011;24936;46.328;11.026;2024-03-06T07:19:41;9.95;;;5.30;;
39222;SDS011;24936;46.328;11.026;2024-03-06T07:22:06;7.13;;;5.18;;
39222;SDS011;24936;46.328;11.026;2024-03-06T07:24:32;6.05;;;5.45;;
39222;SDS011;24936;46.328;11.026;2024-03-06T07:26:57;7.10;;;6.45;;
39222;SDS011;24936;46.328;11.026;2024-03-06T07:29:23;5.22;;;4.38;;
39222;SDS011;24936;46.328;11.026;2024-03-06T07:31:48;7.95;;;6.35;;
39222;SDS011;24936;46.328;11.026;2024-03-06T07:34:14;6.80;;;5.47;;
39222;SDS011;24936;46.328;11.026;2024-03-06T07:36:43;17.52;;;13.73;;
39222;SDS011;24936;46.328;11.026;2024-03-06T07:39:08;15.43;;;12.52;;
39222;SDS011;24936;46.328;11.026;2024-03-06T07:41:33;10.27;;;7.75;;
39222;SDS011;24936;46.328;11.026;2024-03-06T07:43:59;9.43;;;7.53;;
39222;SDS011;24936;46.328;11.026;2024-03-06T07:46:25;10.30;;;7.60;;
39222;SDS011;24936;46.328;11.026;2024-03-06T07:48:50;7.88;;;6.53;;
39222;SDS011;24936;46.328;11.026;2024-03-06T07:51:16;29.75;;;6.18;;
39222;SDS011;24936;46.328;11.026;2024-03-06T07:53:42;48.35;;;8.43;;
39222;SDS011;24936;46.328;11.026;2024-03-06T07:56:09;21.90;;;7.95;;
39222;SDS011;24936;46.328;11.026;2024-03-06T07:58:36;13.52;;;8.93;;
39222;SDS011;24936;46.328;11.026;2024-03-06T08:01:02;5.18;;;4.57;;
39222;SDS011;24936;46.328;11.026;2024-03-06T08:03:28;5.57;;;4.72;;
39222;SDS011;24936;46.328;11.026;2024-03-06T08:05:54;9.18;;;6.55;;
39222;SDS011;24936;46.328;11.026;2024-03-06T08:08:21;13.80;;;8.60;;
39222;SDS011;24936;46.328;11.026;2024-03-06T08:10:47;10.05;;;7.47;;
39222;SDS011;24936;46.328;11.026;2024-03-06T08:13:13;63.83;;;29.83;;
39222;SDS011;24936;46.328;11.026;2024-03-06T08:15:39;19.40;;;12.20;;
39222;SDS011;24936;46.328;11.026;2024-03-06T08:18:05;30.63;;;16.17;;
39222;SDS011;24936;46.328;11.026;2024-03-06T08:20:31;8.63;;;6.43;;
39222;SDS011;24936;46.328;11.026;2024-03-06T08:22:58;8.80;;;6.68;;
39222;SDS011;24936;46.328;11.026;2024-03-06T08:25:23;7.55;;;6.68;;
39222;SDS011;24936;46.328;11.026;2024-03-06T08:27:52;11.25;;;7.80;;
39222;SDS011;24936;46.328;11.026;2024-03-06T08:30:17;15.13;;;11.40;;
39222;SDS011;24936;46.328;11.026;2024-03-06T08:32:42;11.57;;;9.00;;
39222;SDS011;24936;46.328;11.026;2024-03-06T08:35:09;12.25;;;8.88;;
39222;SDS011;24936;46.328;11.026;2024-03-06T08:37:36;7.05;;;5.88;;
39222;SDS011;24936;46.328;11.026;2024-03-06T08:40:03;13.02;;;7.75;;
39222;SDS011;24936;46.328;11.026;2024-03-06T08:42:29;10.38;;;7.60;;
39222;SDS011;24936;46.328;11.026;2024-03-06T08:44:54;8.10;;;6.43;;
39222;SDS011;24936;46.328;11.026;2024-03-06T08:47:20;7.57;;;6.22;;
39222;SDS011;24936;46.328;11.026;2024-03-06T08:49:46;7.35;;;6.57;;
39222;SDS011;24936;46.328;11.026;2024-03-06T08:52:11;6.93;;;6.18;;
39222;SDS011;24936;46.328;11.026;2024-03-06T08:54:37;6.32;;;5.57;;
39222;SDS011;24936;46.328;11.026;2024-03-06T08:57:03;7.53;;;5.70;;
39222;SDS011;24936;46.328;11.026;2024-03-06T08:59:29;11.45;;;6.85;;
39222;SDS011;24936;46.328;11.026;2024-03-06T09:01:55;8.27;;;7.03;;
39222;SDS011;24936;46.328;11.026;2024-03-06T09:04:21;5.25;;;4.03;;
39222;SDS011;24936;46.328;11.026;2024-03-06T09:06:47;4.03;;;3.63;;
39222;SDS011;24936;46.328;11.026;2024-03-06T09:09:13;4.43;;;3.40;;
39222;SDS011;24936;46.328;11.026;2024-03-06T09:11:42;2.95;;;2.65;;
39222;SDS011;24936;46.328;11.026;2024-03-06T09:14:08;1.60;;;1.50;;
39222;SDS011;24936;46.328;11.026;2024-03-06T09:16:36;1.17;;;1.08;;
39222;SDS011;24936;46.328;11.026;2024-03-06T09:19:01;1.63;;;1.52;;
39222;SDS011;24936;46.328;11.026;2024-03-06T09:21:27;1.65;;;1.20;;
39222;SDS011;24936;46.328;11.026;2024-03-06T09:23:53;1.33;;;1.23;;
39222;SDS011;24936;46.328;11.026;2024-03-06T09:26:18;1.73;;;1.55;;
39222;SDS011;24936;46.328;11.026;2024-03-06T09:28:45;1.52;;;1.42;;
39222;SDS011;24936;46.328;11.026;2024-03-06T09:31:11;2.13;;;1.92;;
39222;SDS011;24936;46.328;11.026;2024-03-06T09:33:38;2.72;;;2.50;;
39222;SDS011;24936;46.328;11.026;2024-03-06T09:36:04;5.22;;;2.53;;
39222;SDS011;24936;46.328;11.026;2024-03-06T09:38:30;3.00;;;2.58;;
39222;SDS011;24936;46.328;11.026;2024-03-06T09:40:56;3.25;;;2.95;;
39222;SDS011;24936;46.328;11.026;2024-03-06T09:43:22;3.28;;;2.80;;
39222;SDS011;24936;46.328;11.026;2024-03-06T09:45:48;3.92;;;3.55;;
39222;SDS011;24936;46.328;11.026;2024-03-06T09:48:16;3.38;;;3.08;;
39222;SDS011;24936;46.328;11.026;2024-03-06T09:50:45;4.32;;;3.92;;
39222;SDS011;24936;46.328;11.026;2024-03-06T09:53:12;5.82;;;4.32;;
39222;SDS011;24936;46.328;11.026;2024-03-06T09:55:40;3.08;;;2.78;;
39222;SDS011;24936;46.328;11.026;2024-03-06T09:58:07;4.07;;;3.70;;
39222;SDS011;24936;46.328;11.026;2024-03-06T10:00:34;3.30;;;3.00;;
39222;SDS011;24936;46.328;11.026;2024-03-06T10:03:01;3.13;;;2.80;;
39222;SDS011;24936;46.328;11.026;2024-03-06T10:05:30;2.40;;;2.20;;
39222;SDS011;24936;46.328;11.026;2024-03-06T10:07:57;3.05;;;2.47;;
39222;SDS011;24936;46.328;11.026;2024-03-06T10:10:24;1.60;;;1.50;;
39222;SDS011;24936;46.328;11.026;2024-03-06T10:12:50;1.80;;;1.70;;
39222;SDS011;24936;46.328;11.026;2024-03-06T10:15:16;3.03;;;2.75;;
39222;SDS011;24936;46.328;11.026;2024-03-06T10:17:41;2.17;;;1.98;;
39222;SDS011;24936;46.328;11.026;2024-03-06T10:20:16;2.00;;;1.77;;
39222;SDS011;24936;46.328;11.026;2024-03-06T10:22:44;3.40;;;3.10;;
39222;SDS011;24936;46.328;11.026;2024-03-06T10:25:11;1.88;;;1.77;;
39222;SDS011;24936;46.328;11.026;2024-03-06T10:27:36;2.38;;;2.17;;
39222;SDS011;24936;46.328;11.026;2024-03-06T10:30:03;2.45;;;2.20;;
39222;SDS011;24936;46.328;11.026;2024-03-06T10:32:29;2.50;;;2.30;;
39222;SDS011;24936;46.328;11.026;2024-03-06T10:34:55;2.47;;;2.28;;
39222;SDS011;24936;46.328;11.026;2024-03-06T10:37:21;2.20;;;2.00;;
39222;SDS011;24936;46.328;11.026;2024-03-06T10:39:49;1.80;;;1.70;;
39222;SDS011;24936;46.328;11.026;2024-03-06T10:42:19;2.10;;;1.75;;
39222;SDS011;24936;46.328;11.026;2024-03-06T10:44:52;4.38;;;1.80;;
39222;SDS011;24936;46.328;11.026;2024-03-06T10:47:22;1.70;;;1.60;;
39222;SDS011;24936;46.328;11.026;2024-03-06T10:49:51;4.30;;;1.98;;
39222;SDS011;24936;46.328;11.026;2024-03-06T10:52:19;2.17;;;1.98;;
39222;SDS011;24936;46.328;11.026;2024-03-06T10:54:44;2.05;;;1.88;;
39222;SDS011;24936;46.328;11.026;2024-03-06T10:57:11;2.40;;;2.20;;
39222;SDS011;24936;46.328;11.026;2024-03-06T10:59:38;2.10;;;1.65;;
39222;SDS011;24936;46.328;11.026;2024-03-06T11:02:06;2.13;;;2.00;;
39222;SDS011;24936;46.328;11.026;2024-03-06T11:04:34;3.25;;;2.45;;
39222;SDS011;24936;46.328;11.026;2024-03-06T11:07:00;3.95;;;2.75;;
39222;SDS011;24936;46.328;11.026;2024-03-06T11:09:28;2.20;;;2.05;;
39222;SDS011;24936;46.328;11.026;2024-03-06T11:11:54;3.00;;;2.75;;
39222;SDS011;24936;46.328;11.026;2024-03-06T11:14:22;4.22;;;2.53;;
39222;SDS011;24936;46.328;11.026;2024-03-06T11:16:58;2.97;;;2.50;;
39222;SDS011;24936;46.328;11.026;2024-03-06T11:19:26;6.85;;;3.15;;
39222;SDS011;24936;46.328;11.026;2024-03-06T11:21:52;10.65;;;9.82;;
39222;SDS011;24936;46.328;11.026;2024-03-06T11:24:18;3.38;;;3.08;;
39222;SDS011;24936;46.328;11.026;2024-03-06T11:32:35;2.17;;;1.92;;
39222;SDS011;24936;46.328;11.026;2024-03-06T11:35:01;2.90;;;2.70;;
39222;SDS011;24936;46.328;11.026;2024-03-06T11:37:26;2.35;;;2.15;;
39222;SDS011;24936;46.328;11.026;2024-03-06T11:39:52;2.20;;;2.03;;
39222;SDS011;24936;46.328;11.026;2024-03-06T11:42:35;2.00;;;1.90;;
39222;SDS011;24936;46.328;11.026;2024-03-06T11:45:15;3.25;;;2.92;;
39222;SDS011;24936;46.328;11.026;2024-03-06T11:48:01;6.72;;;4.72;;
39222;SDS011;24936;46.328;11.026;2024-03-06T11:50:27;7.35;;;2.22;;
39222;SDS011;24936;46.328;11.026;2024-03-06T11:52:56;6.20;;;2.47;;
39222;SDS011;24936;46.328;11.026;2024-03-06T11:55:22;4.93;;;1.92;;
39222;SDS011;24936;46.328;11.026;2024-03-06T11:57:50;2.17;;;1.95;;
39222;SDS011;24936;46.328;11.026;2024-03-06T12:00:16;2.10;;;1.90;;
39222;SDS011;24936;46.328;11.026;2024-03-06T12:02:41;2.47;;;2.28;;
39222;SDS011;24936;46.328;11.026;2024-03-06T12:05:08;3.95;;;1.55;;
39222;SDS011;24936;46.328;11.026;2024-03-06T12:07:44;2.60;;;1.90;;
39222;SDS011;24936;46.328;11.026;2024-03-06T12:10:11;3.92;;;2.45;;
39222;SDS011;24936;46.328;11.026;2024-03-06T12:12:36;2.42;;;2.22;;
39222;SDS011;24936;46.328;11.026;2024-03-06T12:15:03;2.00;;;1.83;;
39222;SDS011;24936;46.328;11.026;2024-03-06T12:17:29;2.10;;;1.90;;
39222;SDS011;24936;46.328;11.026;2024-03-06T12:19:55;4.13;;;2.58;;
39222;SDS011;24936;46.328;11.026;2024-03-06T12:22:24;3.67;;;2.83;;
39222;SDS011;24936;46.328;11.026;2024-03-06T12:25:00;1.60;;;1.50;;
39222;SDS011;24936;46.328;11.026;2024-03-06T12:27:25;1.30;;;1.23;;
39222;SDS011;24936;46.328;11.026;2024-03-06T12:29:52;2.00;;;1.77;;
39222;SDS011;24936;46.328;11.026;2024-03-06T12:32:18;1.33;;;1.23;;
39222;SDS011;24936;46.328;11.026;2024-03-06T12:34:43;2.30;;;1.45;;
39222;SDS011;24936;46.328;11.026;2024-03-06T12:37:09;3.45;;;1.88;;
39222;SDS011;24936;46.328;11.026;2024-03-06T12:39:38;6.83;;;1.70;;
39222;SDS011;24936;46.328;11.026;2024-03-06T12:42:03;2.30;;;1.90;;
39222;SDS011;24936;46.328;11.026;2024-03-06T12:44:29;1.63;;;1.48;;
39222;SDS011;24936;46.328;11.026;2024-03-06T12:46:54;2.95;;;1.83;;
39222;SDS011;24936;46.328;11.026;2024-03-06T12:49:19;6.35;;;2.88;;
39222;SDS011;24936;46.328;11.026;2024-03-06T12:51:45;11.43;;;1.98;;
39222;SDS011;24936;46.328;11.026;2024-03-06T12:54:10;7.70;;;2.15;;
39222;SDS011;24936;46.328;11.026;2024-03-06T12:56:35;1.80;;;1.50;;
39222;SDS011;24936;46.328;11.026;2024-03-06T12:59:01;5.90;;;2.05;;
39222;SDS011;24936;46.328;11.026;2024-03-06T13:01:26;2.08;;;1.88;;
39222;SDS011;24936;46.328;11.026;2024-03-06T13:03:52;1.92;;;1.45;;
39222;SDS011;24936;46.328;11.026;2024-03-06T13:06:17;9.27;;;1.40;;
39222;SDS011;24936;46.328;11.026;2024-03-06T13:08:43;3.92;;;1.98;;
39222;SDS011;24936;46.328;11.026;2024-03-06T13:11:08;3.85;;;1.48;;
39222;SDS011;24936;46.328;11.026;2024-03-06T13:13:34;1.50;;;1.40;;
39222;SDS011;24936;46.328;11.026;2024-03-06T13:16:00;1.00;;;1.00;;
39222;SDS011;24936;46.328;11.026;2024-03-06T13:18:25;5.00;;;1.42;;
39222;SDS011;24936;46.328;11.026;2024-03-06T13:20:51;0.85;;;0.77;;
39222;SDS011;24936;46.328;11.026;2024-03-06T13:23:16;7.63;;;1.50;;
39222;SDS011;24936;46.328;11.026;2024-03-06T13:25:42;1.42;;;0.82;;
39222;SDS011;24936;46.328;11.026;2024-03-06T13:28:08;3.33;;;1.00;;
39222;SDS011;24936;46.328;11.026;2024-03-06T13:30:34;1.10;;;0.90;;
39222;SDS011;24936;46.328;11.026;2024-03-06T13:32:59;1.10;;;0.90;;
39222;SDS011;24936;46.328;11.026;2024-03-06T13:35:25;1.73;;;1.25;;
39222;SDS011;24936;46.328;11.026;2024-03-06T13:37:50;1.30;;;1.10;;
39222;SDS011;24936;46.328;11.026;2024-03-06T13:40:16;4.53;;;1.75;;
39222;SDS011;24936;46.328;11.026;2024-03-06T13:42:42;2.45;;;1.48;;
39222;SDS011;24936;46.328;11.026;2024-03-06T13:45:08;1.65;;;1.35;;
39222;SDS011;24936;46.328;11.026;2024-03-06T13:47:37;6.32;;;2.33;;
39222;SDS011;24936;46.328;11.026;2024-03-06T13:50:12;1.00;;;1.00;;
39222;SDS011;24936;46.328;11.026;2024-03-06T13:52:39;6.15;;;2.13;;
39222;SDS011;24936;46.328;11.026;2024-03-06T13:55:05;1.13;;;1.02;;
39222;SDS011;24936;46.328;11.026;2024-03-06T13:57:35;0.63;;;0.63;;
39222;SDS011;24936;46.328;11.026;2024-03-06T14:00:06;1.73;;;1.63;;
39222;SDS011;24936;46.328;11.026;2024-03-06T14:02:42;1.60;;;1.50;;
39222;SDS011;24936;46.328;11.026;2024-03-06T14:05:13;6.60;;;3.15;;
39222;SDS011;24936;46.328;11.026;2024-03-06T14:07:43;0.95;;;0.50;;
39222;SDS011;24936;46.328;11.026;2024-03-06T14:10:08;1.35;;;1.20;;
39222;SDS011;24936;46.328;11.026;2024-03-06T14:12:35;3.00;;;0.50;;
39222;SDS011;24936;46.328;11.026;2024-03-06T14:15:00;0.68;;;0.68;;
39222;SDS011;24936;46.328;11.026;2024-03-06T14:17:26;3.28;;;1.63;;
39222;SDS011;24936;46.328;11.026;2024-03-06T14:19:52;1.58;;;0.88;;
39222;SDS011;24936;46.328;11.026;2024-03-06T14:22:17;1.20;;;1.10;;
39222;SDS011;24936;46.328;11.026;2024-03-06T14:24:43;1.52;;;0.60;;
39222;SDS011;24936;46.328;11.026;2024-03-06T14:27:08;11.80;;;1.30;;
39222;SDS011;24936;46.328;11.026;2024-03-06T14:29:34;0.30;;;0.30;;
39222;SDS011;24936;46.328;11.026;2024-03-06T14:34:29;1.20;;;1.10;;
39222;SDS011;24936;46.328;11.026;2024-03-06T14:36:54;8.10;;;0.70;;
39222;SDS011;24936;46.328;11.026;2024-03-06T14:39:20;1.15;;;0.70;;